referaty.sk – Všetko čo študent potrebuje
Žaneta
Pondelok, 1. júna 2020
Všeobecné humanitné - Kultúra a umenie
Názov referátu   Dátum Počet prezretí Počet stiahnutí Počet vytlačení referátu   Obsah
Slovenčina Hudobný život a filozofické korene hudobnej estetiky v období klasicizmu 12.12.2005 12 101 123 2 400 2.93 1 738 slov
Slovenčina Andy Warhol: Životopis 8.12.2005 18 335 102 908 2.95 516 slov
Slovenčina Krása a vkus ako estetické kategórie 8.12.2005 70 642 367 12 486 2.96 2 593 slov
Slovenčina Atlantída 5.12.2005 12 749 37 1 704 2.98 706 slov
Slovenčina Definícia kultúry 1.12.2005 27 197 275 6 590 2.98 1 539 slov
Slovenčina Realizmus 24.11.2005 13 183 109 1 144 2.98 277 slov
Slovenčina Horkýze Slíže 22.11.2005 12 782 47 880 2.97 1 045 slov
Slovenčina Barok 21.11.2005 14 637 76 1 605 2.94 434 slov
Slovenčina Arthur Conan Doyle a Sherlock Holmes 18.11.2005 19 204 78 1 769 2.98 405 slov
Slovenčina Humanizmus,renesancia a objavne plavby novoveku GYM 18.11.2005 34 397 215 8 385 2.99 3 293 slov
Slovenčina Piercing GYM 15.11.2005 12 260 39 1 936 2.95 683 slov
Slovenčina Piercing v oku GYM 15.11.2005 6 895 8 496 2.97 333 slov
Slovenčina Prístupový proces vstupu SR do EÚ 6.11.2005 37 736 338 1 631 2.97 3 356 slov
Slovenčina Domáce video - filmovanie dovolenky SOŠ 3.11.2005 11 043 35 1 509 2.93 1 294 slov
Slovenčina Filmové umenie - Vlastnosti záberov, skladobné jednoty, pravidlo hlavného smeru SOŠ 3.11.2005 4 952 32 1 172 2.97 1 637 slov
Slovenčina Filmové umenie - Štruktúra dramaturgie SOŠ 3.11.2005 10 029 53 2 099 2.94 1 153 slov
Slovenčina Francisco Goya y Lucientes - referat o jeho diele SOŠ 3.11.2005 18 503 118 3 729 2.93 1 279 slov
Slovenčina Mozaiky v katedrále Premenenia Pána v Markham 31.10.2005 8 978 15 1 919 2.98 1 730 slov
Slovenčina Rokoko a klasicizmus SOŠ 28.10.2005 17 824 153 1 884 2.96 366 slov
Slovenčina Pesach – židovská veľká noc 28.10.2005 25 189 51 3 354 2.96 1 103 slov
Slovenčina Giotto di Bondone 26.10.2005 14 327 70 2 290 2.97 2 007 slov
Slovenčina Kultúrne pamiatky v Liptovskom Mikuláši SOŠ 20.10.2005 29 141 99 3 927 2.97 2 706 slov
Slovenčina Akatist k svjatiteľu Nikolaju 19.10.2005 24 205 25 3 920 2.97 4 468 slov
Slovenčina Pyramídy 18.10.2005 22 397 159 992 2.90 226 slov
Slovenčina Cnostný život podľa stoikov 14.10.2005 34 281 190 4 278 2.94 4 973 slov
Slovenčina Kinetické umenie a pop-art 14.10.2005 17 310 134 3 358 2.96 684 slov
Slovenčina Giotto: Fresky v kaplnke Scroveginovcov v Padove 14.10.2005 5 507 27 1 457 2.94 1 792 slov
Slovenčina Najznámejší predstavitelia klasicizmu 14.10.2005 25 925 99 13 706 2.93 1 235 slov
Slovenčina História Víťazného oblúka na Námestí Charles de Gaulle v Paríži GYM 13.10.2005 18 835 67 1 472 2.99 309 slov
Slovenčina Hip-Hop 10.10.2005 12 443 42 556 3.00 128 slov
Slovenčina Pink Floyd GYM 10.10.2005 9 084 46 976 2.94 1 956 slov
Slovenčina Prvá pieseň veľkého kajúceho kánonu sv. Andreja Krétskeho 7.10.2005 15 477 7 1 534 2.98 2 283 slov
Slovenčina Romantizmus 6.10.2005 19 230 185 1 376 2.96 378 slov
Slovenčina Filmové umenie: História kinematorgafie SOŠ 4.10.2005 34 137 271 4 205 2.93 3 646 slov
Slovenčina Filmové umenie: História v bodoch SOŠ 4.10.2005 24 238 165 1 780 2.95 5 328 slov
Slovenčina Bretónci 4.10.2005 12 226 38 2 152 2.95 2 655 slov
Slovenčina Psycho SOŠ 29.9.2005 4 482 16 435 2.95 561 slov
Slovenčina Majstri husieľ 26.9.2005 9 775 16 4 067 2.97 3 504 slov
Slovenčina Salvádor Dalí: Životopis GYM 22.9.2005 36 223 121 1 696 2.94 1 980 slov
Slovenčina Stredoveké umenie GYM 22.9.2005 73 931 285 11 043 2.95 2 340 slov
Slovenčina Forum Romanum 5.9.2005 19 755 49 1 968 2.95 1 361 slov
Slovenčina Peter Paul Rubens SOŠ 24.8.2005 15 221 89 4 089 2.95 3 196 slov
Slovenčina Románsky sloh v európskom umení SOŠ 17.8.2005 21 752 143 1 892 2.95 436 slov
Slovenčina Gotika SOŠ 17.8.2005 21 060 203 2 133 2.95 495 slov
Slovenčina Linkin park SOŠ 2.8.2005 27 465 159 1 495 2.94 853 slov
Slovenčina Dejiny fotografie 1.8.2005 40 296 661 4 729 2.97 3 055 slov
Slovenčina Renesančné maliarstvo SOŠ 27.7.2005 23 364 162 4 192 2.96 2 114 slov
Slovenčina Leonardo da Vinci: Životopis SOŠ 26.7.2005 17 336 147 1 458 2.94 2 310 slov
Slovenčina Pyramídy: Kamenné zázraky na Níle SOŠ 25.7.2005 9 347 170 1 656 2.94 1 400 slov
Slovenčina Francúzsky jazyk 13.7.2005 10 220 8 2 945 3.00 722 slov
 
 
späť späť   7  |  8  |  9  |  10  |   11  |  12  |  13  |  14  |  15    ďalej ďalej
Copyright © 1999-2019 News and Media Holding, a.s.
Všetky práva vyhradené. Publikovanie alebo šírenie obsahu je zakázané bez predchádzajúceho súhlasu.